createdAt,value
2022-09-22T00:01:31.427Z,102336.13
2022-09-22T00:04:03.794Z,102338.69
2022-09-22T00:06:34.133Z,102331.94
2022-09-22T00:09:03.704Z,102339.09
2022-09-22T00:11:33.475Z,102345.81
2022-09-22T00:14:03.733Z,102331.84
2022-09-22T00:16:34.279Z,102343.31
2022-09-22T00:19:03.664Z,102338.88
2022-09-22T00:21:32.390Z,102335.03
2022-09-22T00:24:02.375Z,102331.19
2022-09-22T00:26:31.262Z,102340.03
2022-09-22T00:29:01.833Z,102341.66
2022-09-22T00:31:30.998Z,102334.75
2022-09-22T00:33:58.949Z,102333.94
2022-09-22T00:36:28.962Z,102326.44
2022-09-22T00:38:58.206Z,102328.72
2022-09-22T00:41:27.825Z,102326.84
2022-09-22T00:44:28.752Z,102332.00
2022-09-22T00:47:01.839Z,102325.94
2022-09-22T00:49:35.830Z,102323.06
2022-09-22T00:52:05.369Z,102320.44
2022-09-22T00:54:33.952Z,102324.28
2022-09-22T00:57:07.148Z,102322.34
2022-09-22T00:59:35.297Z,102323.66
2022-09-22T01:02:03.299Z,102329.41
2022-09-22T01:04:31.654Z,102326.50
2022-09-22T01:07:00.232Z,102316.38
2022-09-22T01:09:33.050Z,102317.16
2022-09-22T01:12:01.277Z,102312.13
2022-09-22T01:14:46.632Z,102310.88
2022-09-22T01:17:20.983Z,102310.94
2022-09-22T01:20:11.325Z,102305.88
2022-09-22T01:23:02.556Z,102300.28
2022-09-22T01:25:52.841Z,102306.50
2022-09-22T01:28:42.613Z,102303.09
2022-09-22T01:31:17.203Z,102300.81
2022-09-22T01:33:47.941Z,102306.38
2022-09-22T01:36:23.258Z,102297.38
2022-09-22T01:39:01.976Z,102294.69
2022-09-22T01:41:44.602Z,102296.72
2022-09-22T01:44:16.865Z,102286.34
2022-09-22T01:46:55.760Z,102299.28
2022-09-22T01:49:26.185Z,102287.78
2022-09-22T01:51:56.492Z,102294.88
2022-09-22T01:54:28.454Z,102283.91
2022-09-22T01:56:59.261Z,102286.38
2022-09-22T01:59:30.081Z,102284.09
2022-09-22T02:02:04.214Z,102283.09
2022-09-22T02:04:36.767Z,102277.34
2022-09-22T02:07:08.199Z,102280.22
2022-09-22T02:09:37.191Z,102272.63
2022-09-22T02:12:05.966Z,102277.44
2022-09-22T02:14:33.851Z,102278.16
2022-09-22T02:17:03.370Z,102277.63
2022-09-22T02:19:34.609Z,102278.66
2022-09-22T02:22:02.545Z,102273.41
2022-09-22T02:24:32.066Z,102272.31
2022-09-22T02:27:01.184Z,102274.63
2022-09-22T02:29:32.330Z,102272.63
2022-09-22T02:32:03.416Z,102276.81
2022-09-22T02:34:31.885Z,102270.34
2022-09-22T02:37:07.435Z,102278.59
2022-09-22T02:39:40.434Z,102276.69
2022-09-22T02:42:17.009Z,102268.50
2022-09-22T02:44:48.934Z,102266.38
2022-09-22T02:47:23.481Z,102265.38
2022-09-22T02:49:52.072Z,102267.56
2022-09-22T02:52:22.212Z,102269.94
2022-09-22T02:54:50.177Z,102266.78
2022-09-22T02:57:18.063Z,102256.16
2022-09-22T02:59:46.014Z,102266.81
2022-09-22T03:02:14.284Z,102253.13
2022-09-22T03:04:43.617Z,102257.91
2022-09-22T03:07:11.681Z,102251.56
2022-09-22T03:09:39.598Z,102265.75
2022-09-22T03:12:07.840Z,102256.09
2022-09-22T03:14:35.757Z,102249.69
2022-09-22T03:17:03.681Z,102256.69
2022-09-22T03:19:31.614Z,102248.91
2022-09-22T03:22:00.873Z,102256.03
2022-09-22T03:24:28.862Z,102249.84
2022-09-22T03:26:56.754Z,102248.00
2022-09-22T03:29:24.685Z,102247.25
2022-09-22T03:31:52.589Z,102249.88
2022-09-22T03:34:20.568Z,102242.66
2022-09-22T03:36:48.484Z,102244.06
2022-09-22T03:39:17.861Z,102251.22
2022-09-22T03:41:46.696Z,102249.34
2022-09-22T03:44:14.664Z,102245.53
2022-09-22T03:46:42.566Z,102244.47
2022-09-22T03:49:11.243Z,102241.81
2022-09-22T03:51:39.512Z,102243.41
2022-09-22T03:54:07.646Z,102245.34
2022-09-22T03:56:36.997Z,102238.06
2022-09-22T03:59:05.037Z,102241.63
2022-09-22T04:01:34.050Z,102239.56
2022-09-22T04:04:02.046Z,102235.81
2022-09-22T04:06:29.973Z,102232.34
2022-09-22T04:08:57.914Z,102241.88
2022-09-22T04:11:25.824Z,102230.44
2022-09-22T04:13:55.324Z,102228.16
2022-09-22T04:16:23.232Z,102228.69
2022-09-22T04:18:51.144Z,102221.94
2022-09-22T04:21:19.109Z,102227.66
2022-09-22T04:23:46.991Z,102221.78
2022-09-22T04:26:14.921Z,102222.56
2022-09-22T04:28:42.808Z,102226.31
2022-09-22T04:31:12.143Z,102222.47
2022-09-22T04:33:40.075Z,102213.00
2022-09-22T04:36:08.274Z,102216.88
2022-09-22T04:38:36.175Z,102221.19
2022-09-22T04:41:04.264Z,102225.69
2022-09-22T04:43:32.230Z,102221.31
2022-09-22T04:46:00.195Z,102215.94
2022-09-22T04:48:29.614Z,102212.91
2022-09-22T04:50:57.598Z,102210.13
2022-09-22T04:53:25.563Z,102221.34
2022-09-22T04:55:53.527Z,102213.78
2022-09-22T04:58:21.599Z,102214.94
2022-09-22T05:00:49.774Z,102218.88
2022-09-22T05:03:22.026Z,102219.38
2022-09-22T05:05:51.572Z,102226.06
2022-09-22T05:08:19.490Z,102223.59
2022-09-22T05:10:47.572Z,102219.94
2022-09-22T05:13:15.648Z,102220.81
2022-09-22T05:15:43.545Z,102220.19
2022-09-22T05:18:11.780Z,102223.63
2022-09-22T05:20:39.938Z,102221.31
2022-09-22T05:23:09.193Z,102221.09
2022-09-22T05:25:37.085Z,102220.53
2022-09-22T05:28:05.006Z,102218.66
2022-09-22T05:30:32.927Z,102216.81
2022-09-22T05:33:00.947Z,102216.25
2022-09-22T05:35:32.995Z,102216.09
2022-09-22T05:38:03.901Z,102216.69
2022-09-22T05:40:33.316Z,102224.50
2022-09-22T05:43:01.374Z,102229.66
2022-09-22T05:45:29.400Z,102223.28
2022-09-22T05:47:57.440Z,102229.59
2022-09-22T05:50:25.308Z,102224.50
2022-09-22T05:52:59.273Z,102225.66
2022-09-22T05:55:27.159Z,102219.53
2022-09-22T05:57:58.886Z,102217.66
2022-09-22T06:00:27.376Z,102214.41
2022-09-22T06:02:55.557Z,102220.78
2022-09-22T06:05:23.553Z,102211.44
2022-09-22T06:08:00.849Z,102215.59
2022-09-22T06:10:28.764Z,102218.44
2022-09-22T06:13:00.808Z,102214.38
2022-09-22T06:15:28.941Z,102221.63
2022-09-22T06:17:56.969Z,102213.91
2022-09-22T06:20:25.141Z,102222.38
2022-09-22T06:22:54.051Z,102215.53
2022-09-22T06:25:22.084Z,102219.50
2022-09-22T06:28:01.949Z,102226.97
2022-09-22T06:30:30.887Z,102223.50
2022-09-22T06:32:59.449Z,102230.47
2022-09-22T06:35:28.545Z,102225.78
2022-09-22T06:37:59.781Z,102237.28
2022-09-22T06:40:27.964Z,102234.78
2022-09-22T06:42:58.410Z,102234.13
2022-09-22T06:45:28.012Z,102239.75
2022-09-22T06:47:58.809Z,102239.13
2022-09-22T06:50:29.178Z,102242.88
2022-09-22T06:52:59.745Z,102240.66
2022-09-22T06:55:28.416Z,102244.50
2022-09-22T06:57:57.602Z,102243.63
2022-09-22T07:00:33.189Z,102250.75
2022-09-22T07:03:07.152Z,102248.50
2022-09-22T07:05:35.134Z,102245.19
2022-09-22T07:08:04.793Z,102242.66
2022-09-22T07:10:37.725Z,102242.56
2022-09-22T07:13:06.443Z,102239.34
2022-09-22T07:15:37.605Z,102248.41
2022-09-22T07:18:05.747Z,102246.47
2022-09-22T07:20:35.783Z,102238.31
2022-09-22T07:23:03.776Z,102243.94
2022-09-22T07:25:36.034Z,102236.44
2022-09-22T07:28:05.385Z,102238.75
2022-09-22T07:30:33.465Z,102240.59
2022-09-22T07:33:02.930Z,102237.63
2022-09-22T07:35:31.777Z,102243.41
2022-09-22T07:38:03.390Z,102238.16
2022-09-22T07:40:31.595Z,102232.78
2022-09-22T07:42:59.525Z,102233.97
2022-09-22T07:45:27.627Z,102234.09
2022-09-22T07:48:12.986Z,102233.91
2022-09-22T07:50:42.311Z,102233.66
2022-09-22T07:53:10.189Z,102238.06
2022-09-22T07:55:38.622Z,102234.97
2022-09-22T07:58:06.583Z,102232.97
2022-09-22T08:00:36.352Z,102239.84
2022-09-22T08:03:04.313Z,102239.84
2022-09-22T08:05:32.248Z,102233.34
2022-09-22T08:08:02.604Z,102240.50
2022-09-22T08:10:35.704Z,102241.69
2022-09-22T08:13:04.587Z,102243.28
2022-09-22T08:15:32.550Z,102246.31
2022-09-22T08:18:02.286Z,102241.06
2022-09-22T08:20:30.245Z,102241.38
2022-09-22T08:23:03.173Z,102249.97
2022-09-22T08:25:32.845Z,102241.41
2022-09-22T08:28:02.297Z,102257.13
2022-09-22T08:30:30.206Z,102247.38
2022-09-22T08:33:00.738Z,102253.31
2022-09-22T08:35:29.060Z,102248.63
2022-09-22T08:37:57.017Z,102258.19
2022-09-22T08:40:31.448Z,102256.81
2022-09-22T08:43:04.354Z,102254.09
2022-09-22T08:45:35.262Z,102252.66
2022-09-22T08:48:24.225Z,102257.84
2022-09-22T08:51:11.606Z,102254.31
2022-09-22T08:53:43.478Z,102260.94
2022-09-22T08:56:16.948Z,102258.31
2022-09-22T08:58:51.375Z,102260.56
2022-09-22T09:01:30.476Z,102269.47
2022-09-22T09:04:06.873Z,102264.56
2022-09-22T09:06:41.682Z,102262.19
2022-09-22T09:09:21.645Z,102265.41
2022-09-22T09:12:12.299Z,102257.69
2022-09-22T09:14:54.348Z,102266.66
2022-09-22T09:17:25.868Z,102264.91
2022-09-22T09:19:55.236Z,102264.03
2022-09-22T09:22:26.793Z,102255.09
2022-09-22T09:27:50.193Z,102253.00
2022-09-22T09:30:20.629Z,102246.94
2022-09-22T09:32:51.594Z,102241.69
2022-09-22T09:35:26.778Z,102243.53
2022-09-22T09:37:58.132Z,102244.75
2022-09-22T09:40:26.068Z,102235.84
2022-09-22T09:42:58.125Z,102239.50
2022-09-22T09:45:32.029Z,102242.81
2022-09-22T09:48:17.197Z,102227.63
2022-09-22T09:50:45.076Z,102235.00
2022-09-22T09:53:30.660Z,102229.25
2022-09-22T09:55:58.920Z,102220.13
2022-09-22T09:58:44.862Z,102212.63
2022-09-22T10:01:15.601Z,102225.25
2022-09-22T10:03:47.018Z,102217.53
2022-09-22T10:06:16.643Z,102216.44
2022-09-22T10:08:46.272Z,102212.06
2022-09-22T10:11:15.169Z,102211.56
2022-09-22T10:13:44.183Z,102210.75
2022-09-22T10:16:33.531Z,102206.66
2022-09-22T10:19:12.896Z,102213.84
2022-09-22T10:21:40.781Z,102210.22
2022-09-22T10:24:25.656Z,102206.44
2022-09-22T10:26:56.233Z,102203.97
2022-09-22T10:29:25.113Z,102206.19
2022-09-22T10:32:16.124Z,102201.88
2022-09-22T10:37:22.382Z,102200.16
2022-09-22T10:39:51.296Z,102203.34
2022-09-22T10:42:37.666Z,102195.69
2022-09-22T10:45:08.217Z,102197.91
2022-09-22T10:47:51.971Z,102196.41
2022-09-22T10:50:36.651Z,102193.00
2022-09-22T10:53:14.656Z,102196.44
2022-09-22T10:55:48.329Z,102190.66
2022-09-22T10:58:28.134Z,102185.75
2022-09-22T11:01:09.321Z,102183.44
2022-09-22T11:03:57.055Z,102180.81
2022-09-22T11:06:54.549Z,102185.63
2022-09-22T11:09:45.502Z,102179.69
2022-09-22T11:12:19.677Z,102187.72
2022-09-22T11:15:01.046Z,102172.78
2022-09-22T11:17:43.098Z,102180.56
2022-09-22T11:20:32.339Z,102174.84
2022-09-22T11:23:21.279Z,102179.84
2022-09-22T11:25:58.812Z,102178.19
2022-09-22T11:28:43.713Z,102171.03
2022-09-22T11:31:22.734Z,102164.91
2022-09-22T11:34:01.233Z,102163.53
2022-09-22T11:36:39.096Z,102168.47
2022-09-22T11:39:21.012Z,102167.97
2022-09-22T11:42:01.322Z,102163.00
2022-09-22T11:44:36.913Z,102159.69
2022-09-22T11:47:23.415Z,102158.50
2022-09-22T11:50:09.493Z,102154.56
2022-09-22T11:52:50.968Z,102151.94
2022-09-22T11:55:24.974Z,102151.78
2022-09-22T11:57:57.057Z,102143.50
2022-09-22T12:00:25.066Z,102133.78
2022-09-22T12:03:01.988Z,102148.25
2022-09-22T12:05:35.186Z,102134.47
2022-09-22T12:08:07.043Z,102132.91
2022-09-22T12:10:37.133Z,102130.19
2022-09-22T12:13:07.226Z,102124.47
2022-09-22T12:15:42.529Z,102128.38
2022-09-22T12:18:13.936Z,102130.06
2022-09-22T12:20:49.614Z,102133.56
2022-09-22T12:23:28.944Z,102121.75
2022-09-22T12:25:57.641Z,102117.91
2022-09-22T12:28:28.114Z,102114.34
2022-09-22T12:31:04.994Z,102111.63
2022-09-22T12:33:34.250Z,102115.25
2022-09-22T12:36:03.071Z,102109.47
2022-09-22T12:38:32.465Z,102104.97
2022-09-22T12:41:03.055Z,102105.44
2022-09-22T12:43:32.269Z,102102.81
2022-09-22T12:46:01.323Z,102104.41
2022-09-22T12:48:31.668Z,102097.44
2022-09-22T12:51:32.090Z,102100.00
2022-09-22T12:54:48.628Z,102102.34
2022-09-22T12:57:29.157Z,102098.09
2022-09-22T13:00:32.107Z,102090.94
2022-09-22T13:03:02.101Z,102087.31
2022-09-22T13:05:45.542Z,102078.16
2022-09-22T13:08:19.552Z,102081.91
2022-09-22T13:11:05.766Z,102082.00
2022-09-22T13:13:43.190Z,102083.06
2022-09-22T13:16:33.498Z,102075.50
2022-09-22T13:19:02.146Z,102079.44
2022-09-22T13:21:31.605Z,102079.44
2022-09-22T13:24:00.988Z,102066.63
2022-09-22T13:26:31.706Z,102064.91
2022-09-22T13:29:08.070Z,102068.06
2022-09-22T13:31:41.097Z,102068.84
2022-09-22T13:34:22.924Z,102067.22
2022-09-22T13:36:51.245Z,102058.16
2022-09-22T13:39:22.166Z,102052.47
2022-09-22T13:41:52.128Z,102047.63
2022-09-22T13:44:26.386Z,102050.97
2022-09-22T13:46:55.686Z,102042.94
2022-09-22T13:49:30.953Z,102049.53
2022-09-22T13:52:00.629Z,102050.09
2022-09-22T13:54:31.353Z,102040.91
2022-09-22T13:56:59.894Z,102036.69
2022-09-22T13:59:35.376Z,102037.88
2022-09-22T14:02:08.291Z,102033.50
2022-09-22T14:04:36.511Z,102030.34
2022-09-22T14:07:08.493Z,102032.78
2022-09-22T14:09:38.701Z,102029.09
2022-09-22T14:12:09.857Z,102024.13
2022-09-22T14:14:39.817Z,102022.22
2022-09-22T14:17:09.890Z,102024.09
2022-09-22T14:19:40.147Z,102016.47
2022-09-22T14:22:16.374Z,102019.88
2022-09-22T14:24:49.009Z,102020.72
2022-09-22T14:27:21.283Z,102018.81
2022-09-22T14:29:53.067Z,102021.06
2022-09-22T14:32:26.448Z,102018.28
2022-09-22T14:34:58.125Z,102020.19
2022-09-22T14:37:29.477Z,102017.56
2022-09-22T14:39:58.778Z,102007.44
2022-09-22T14:42:29.312Z,102003.44
2022-09-22T14:45:18.549Z,102010.81
2022-09-22T14:47:46.443Z,102003.28
2022-09-22T14:50:19.229Z,101994.47
2022-09-22T14:52:56.153Z,101996.28
2022-09-22T14:55:29.842Z,101991.84
2022-09-22T14:57:58.246Z,101988.50
2022-09-22T15:00:45.185Z,101980.44
2022-09-22T15:03:21.774Z,101981.22
2022-09-22T15:05:50.677Z,101977.44
2022-09-22T15:08:23.799Z,101978.34
2022-09-22T15:10:56.742Z,101968.19
2022-09-22T15:13:31.214Z,101973.84
2022-09-22T15:16:00.531Z,101972.94
2022-09-22T15:18:30.770Z,101966.13
2022-09-22T15:21:00.845Z,101977.06
2022-09-22T15:23:31.706Z,101977.59
2022-09-22T15:26:03.744Z,101977.88
2022-09-22T15:28:32.581Z,101971.09
2022-09-22T15:31:02.571Z,101963.88
2022-09-22T15:33:30.472Z,101970.97
2022-09-22T15:36:02.973Z,101971.41
2022-09-22T15:38:32.764Z,101971.78
2022-09-22T15:41:01.288Z,101969.72
2022-09-22T15:43:31.053Z,101960.13
2022-09-22T15:46:06.291Z,101960.28
2022-09-22T15:48:36.989Z,101956.13
2022-09-22T15:51:06.816Z,101962.19
2022-09-22T15:53:35.400Z,101951.00
2022-09-22T15:56:06.421Z,101944.75
2022-09-22T15:58:36.337Z,101945.13
2022-09-22T16:01:06.148Z,101946.81
2022-09-22T16:03:40.246Z,101939.34
2022-09-22T16:06:12.050Z,101940.22
2022-09-22T16:08:42.239Z,101943.31
2022-09-22T16:11:13.433Z,101945.50
2022-09-22T16:13:41.601Z,101936.13
2022-09-22T16:16:12.615Z,101935.38
2022-09-22T16:18:41.985Z,101930.72
2022-09-22T16:21:18.931Z,101937.97
2022-09-22T16:23:46.898Z,101947.47
2022-09-22T16:26:14.811Z,101941.34
2022-09-22T16:28:42.720Z,101941.13
2022-09-22T16:31:13.599Z,101934.78
2022-09-22T16:33:41.489Z,101943.25
2022-09-22T16:36:09.605Z,101929.69
2022-09-22T16:38:39.502Z,101929.69
2022-09-22T16:41:08.764Z,101927.88
2022-09-22T16:43:36.791Z,101928.19
2022-09-22T16:46:27.674Z,101914.53
2022-09-22T16:48:58.659Z,101917.78
2022-09-22T16:51:26.734Z,101909.41
2022-09-22T16:53:54.813Z,101904.66
2022-09-22T16:56:24.174Z,101910.28
2022-09-22T16:58:52.416Z,101912.03
2022-09-22T17:01:20.851Z,101908.28
2022-09-22T17:03:50.477Z,101902.53
2022-09-22T17:06:23.067Z,101901.22
2022-09-22T17:08:53.559Z,101901.25
2022-09-22T17:11:29.756Z,101903.97
2022-09-22T17:13:59.856Z,101909.34
2022-09-22T17:16:30.368Z,101905.16
2022-09-22T17:19:02.341Z,101909.41
2022-09-22T17:21:34.373Z,101903.28
2022-09-22T17:24:03.587Z,101901.31
2022-09-22T17:26:34.383Z,101901.53
2022-09-22T17:29:02.875Z,101895.66
2022-09-22T17:31:32.017Z,101887.44
2022-09-22T17:34:00.333Z,101893.47
2022-09-22T17:36:29.560Z,101896.44
2022-09-22T17:39:00.131Z,101887.22
2022-09-22T17:41:31.592Z,101892.13
2022-09-22T17:44:02.199Z,101894.59
2022-09-22T17:46:31.369Z,101891.69
2022-09-22T17:49:16.981Z,101897.28
2022-09-22T17:52:03.816Z,101897.06
2022-09-22T17:54:51.876Z,101895.63
2022-09-22T17:57:21.721Z,101895.44
2022-09-22T17:59:50.190Z,101896.56
2022-09-22T18:02:20.357Z,101896.16
2022-09-22T18:04:48.881Z,101903.72
2022-09-22T18:07:18.673Z,101907.00
2022-09-22T18:09:49.500Z,101903.84
2022-09-22T18:12:21.319Z,101896.44
2022-09-22T18:14:50.413Z,101904.38
2022-09-22T18:17:19.605Z,101897.50
2022-09-22T18:19:47.668Z,101893.34
2022-09-22T18:22:17.846Z,101900.38
2022-09-22T18:24:48.309Z,101894.69
2022-09-22T18:27:17.844Z,101898.88
2022-09-22T18:29:45.736Z,101893.09
2022-09-22T18:32:13.721Z,101889.78
2022-09-22T18:34:41.641Z,101889.84
2022-09-22T18:37:11.163Z,101896.34
2022-09-22T18:39:40.762Z,101890.22
2022-09-22T18:42:11.361Z,101890.34
2022-09-22T18:44:39.988Z,101885.59
2022-09-22T18:47:08.557Z,101894.19
2022-09-22T18:49:40.262Z,101893.69
2022-09-22T18:52:10.103Z,101895.69
2022-09-22T18:54:43.688Z,101892.19
2022-09-22T18:57:13.421Z,101896.19
2022-09-22T18:59:41.441Z,101898.81
2022-09-22T19:02:12.051Z,101896.72
2022-09-22T19:04:40.346Z,101896.72
2022-09-22T19:07:25.579Z,101905.03
2022-09-22T19:09:53.569Z,101904.25
2022-09-22T19:12:22.850Z,101901.34
2022-09-22T19:14:54.505Z,101902.22
2022-09-22T19:17:24.438Z,101898.28
2022-09-22T19:19:52.557Z,101896.69
2022-09-22T19:22:22.807Z,101902.19
2022-09-22T19:24:50.900Z,101906.25
2022-09-22T19:27:19.186Z,101902.53
2022-09-22T19:29:49.070Z,101908.75
2022-09-22T19:32:17.121Z,101907.34
2022-09-22T19:34:45.029Z,101903.25
2022-09-22T19:37:12.900Z,101896.31
2022-09-22T19:39:42.388Z,101895.25
2022-09-22T19:42:10.257Z,101897.34
2022-09-22T19:44:40.204Z,101894.63
2022-09-22T19:47:09.472Z,101900.56
2022-09-22T19:49:37.624Z,101897.63
2022-09-22T19:52:05.505Z,101898.25
2022-09-22T19:54:33.540Z,101901.81
2022-09-22T19:57:01.552Z,101898.22
2022-09-22T19:59:29.610Z,101892.31
2022-09-22T20:01:57.612Z,101891.06
2022-09-22T20:04:28.236Z,101891.31
2022-09-22T20:06:56.215Z,101897.34
2022-09-22T20:09:24.237Z,101889.31
2022-09-22T20:11:53.054Z,101899.59
2022-09-22T20:14:25.373Z,101899.47
2022-09-22T20:16:54.840Z,101892.91
2022-09-22T20:19:24.012Z,101898.72
2022-09-22T20:21:54.646Z,101888.19
2022-09-22T20:24:23.838Z,101893.38
2022-09-22T20:26:51.910Z,101883.25
2022-09-22T20:29:20.595Z,101884.94
2022-09-22T20:31:48.486Z,101878.50
2022-09-22T20:34:16.748Z,101889.66
2022-09-22T20:36:44.609Z,101883.19
2022-09-22T20:39:16.107Z,101883.69
2022-09-22T20:41:44.845Z,101882.00
2022-09-22T20:44:14.698Z,101878.16
2022-09-22T20:46:43.347Z,101872.13
2022-09-22T20:49:13.495Z,101872.22
2022-09-22T20:51:41.477Z,101873.00
2022-09-22T20:54:09.550Z,101877.66
2022-09-22T20:56:42.618Z,101877.50
2022-09-22T20:59:11.350Z,101874.72
2022-09-22T21:01:39.393Z,101875.50
2022-09-22T21:04:07.530Z,101882.03
2022-09-22T21:06:35.570Z,101877.09
2022-09-22T21:09:20.926Z,101871.25
2022-09-22T21:11:50.239Z,101866.97
2022-09-22T21:14:18.121Z,101869.00
2022-09-22T21:16:48.113Z,101868.13
2022-09-22T21:19:16.034Z,101863.47
2022-09-22T21:21:43.925Z,101858.22
2022-09-22T21:24:11.813Z,101858.44
2022-09-22T21:26:39.722Z,101855.38
2022-09-22T21:29:10.346Z,101857.97
2022-09-22T21:31:38.386Z,101856.69
2022-09-22T21:34:06.375Z,101866.78
2022-09-22T21:36:34.381Z,101847.06
2022-09-22T21:39:02.292Z,101860.47
2022-09-22T21:41:31.289Z,101850.50
2022-09-22T21:43:59.989Z,101849.44
2022-09-22T21:46:30.511Z,101839.25
2022-09-22T21:49:01.031Z,101844.91
2022-09-22T21:51:30.429Z,101846.09
2022-09-22T21:53:58.349Z,101837.41
2022-09-22T21:56:27.769Z,101837.88
2022-09-22T21:58:56.322Z,101832.34
2022-09-22T22:01:25.668Z,101835.03
2022-09-22T22:03:56.658Z,101825.28
2022-09-22T22:06:26.252Z,101825.38
2022-09-22T22:09:01.681Z,101822.59
2022-09-22T22:11:31.211Z,101825.84
2022-09-22T22:14:00.715Z,101825.28
2022-09-22T22:16:32.462Z,101832.03
2022-09-22T22:19:02.295Z,101814.53
2022-09-22T22:21:31.564Z,101817.56
2022-09-22T22:24:21.113Z,101816.25
2022-09-22T22:26:51.585Z,101812.25
2022-09-22T22:29:19.801Z,101806.91
2022-09-22T22:31:49.131Z,101809.09
2022-09-22T22:34:19.743Z,101805.50
2022-09-22T22:36:48.797Z,101809.84
2022-09-22T22:39:16.908Z,101813.88
2022-09-22T22:41:44.861Z,101811.16
2022-09-22T22:44:13.082Z,101807.81
2022-09-22T22:46:41.048Z,101806.81
2022-09-22T22:49:09.154Z,101800.53
2022-09-22T22:51:39.993Z,101801.72
2022-09-22T22:54:08.110Z,101797.34
2022-09-22T22:56:38.703Z,101796.78
2022-09-22T22:59:08.793Z,101794.59
2022-09-22T23:01:36.815Z,101783.22
2022-09-22T23:04:06.280Z,101782.72
2022-09-22T23:06:36.062Z,101781.31
2022-09-22T23:09:06.467Z,101789.78
2022-09-22T23:11:37.154Z,101780.75
2022-09-22T23:14:06.989Z,101780.28
2022-09-22T23:16:36.362Z,101783.69
2022-09-22T23:19:07.820Z,101782.13
2022-09-22T23:21:36.029Z,101777.50
2022-09-22T23:24:06.061Z,101774.91
2022-09-22T23:26:34.646Z,101773.41
2022-09-22T23:29:03.937Z,101773.94
2022-09-22T23:31:32.163Z,101776.56
2022-09-22T23:34:00.304Z,101771.91
2022-09-22T23:36:29.798Z,101766.72
2022-09-22T23:39:02.037Z,101758.47
2022-09-22T23:41:31.586Z,101760.09
2022-09-22T23:43:59.487Z,101763.19
2022-09-22T23:46:27.982Z,101757.16
2022-09-22T23:48:56.480Z,101750.38
2022-09-22T23:51:24.644Z,101755.34
2022-09-22T23:53:52.944Z,101753.88
2022-09-22T23:56:20.858Z,101749.84
2022-09-22T23:58:50.194Z,101744.41
